KFLD/FLD METAR and TAF weather

Enter ICAO airport designator
Station Type Date Time Source
KFLD METAR 2021/09/16 10:53 UTC NOAA

KFLD 161053Z AUTO 00000KT 10SM CLR 12/08 A3010 RMK AO2 SLP191 T01220083


Station Type Date Time Source
KFLD Decoded METAR 2021/09/16 10:53 UTC NOAA

FOND DU LAC COUNTY AIRPORT, WI, United States (KFLD) 43-46N 88-29W 240M
Sep 16, 2021 - 06:53 AM EDT / 2021.09.16 1053 UTC
Wind: Calm:0
Visibility: 10 mile(s):0
Sky conditions: clear
Temperature: 54.0 F (12.2 C)
Dew Point: 46.9 F (8.3 C)
Relative Humidity: 77%
Pressure (altimeter): 30.1 in. Hg (1019 hPa)
ob: KFLD 161053Z AUTO 00000KT 10SM CLR 12/08 A3010 RMK AO2 SLP191 T01220083
cycle: 11

Station Type Date Time Source
KFLD TAF UTC NOAA

Error!

Example: see airport list